createdAt,value
2022-11-01T00:02:51.276Z,1.50
2022-11-01T00:05:17.933Z,1.60
2022-11-01T00:07:44.508Z,1.73
2022-11-01T00:12:37.188Z,1.42
2022-11-01T00:15:03.936Z,1.52
2022-11-01T00:19:55.989Z,1.63
2022-11-01T00:22:22.702Z,1.50
2022-11-01T00:27:14.740Z,1.98
2022-11-01T00:29:41.384Z,1.67
2022-11-01T00:36:59.886Z,2.25
2022-11-01T00:39:30.578Z,2.53
2022-11-01T00:47:26.310Z,1.80
2022-11-01T00:49:52.924Z,2.03
2022-11-01T00:54:44.997Z,1.77
2022-11-01T00:57:11.614Z,1.95
2022-11-01T00:59:40.890Z,2.08
2022-11-01T01:09:24.233Z,2.83
2022-11-01T01:11:50.876Z,3.17
2022-11-01T01:26:30.488Z,2.97
2022-11-01T01:28:57.143Z,3.00
2022-11-01T01:31:23.728Z,2.15
2022-11-01T01:33:50.395Z,2.53
2022-11-01T01:36:17.017Z,2.70
2022-11-01T01:38:43.734Z,2.50
2022-11-01T01:41:28.945Z,2.58
2022-11-01T01:43:55.609Z,2.35
2022-11-01T01:46:22.213Z,2.50
2022-11-01T01:48:50.220Z,2.10
2022-11-01T01:51:27.040Z,2.25
2022-11-01T01:56:24.432Z,2.10
2022-11-01T02:01:27.568Z,2.80
2022-11-01T02:03:54.619Z,2.70
2022-11-01T02:08:56.587Z,1.98
2022-11-01T02:11:23.219Z,2.70
2022-11-01T02:13:49.935Z,2.38
2022-11-01T02:16:19.328Z,2.28
2022-11-01T02:18:48.175Z,2.00
2022-11-01T02:21:26.007Z,2.35
2022-11-01T02:26:21.040Z,2.83
2022-11-01T02:34:40.401Z,2.22
2022-11-01T02:37:25.545Z,3.45
2022-11-01T02:42:21.425Z,2.13
2022-11-01T02:45:27.712Z,2.40
2022-11-01T02:48:01.173Z,2.05
2022-11-01T02:50:28.726Z,2.67
2022-11-01T02:52:55.550Z,2.53
2022-11-01T03:00:37.987Z,3.33
2022-11-01T03:03:10.601Z,3.17
2022-11-01T03:05:41.168Z,2.17
2022-11-01T03:08:09.596Z,1.83
2022-11-01T03:10:48.532Z,2.25
2022-11-01T03:13:15.155Z,2.20
2022-11-01T03:15:43.964Z,2.13
2022-11-01T03:18:12.874Z,2.03
2022-11-01T03:20:49.724Z,2.30
2022-11-01T03:23:19.129Z,2.25
2022-11-01T03:25:47.989Z,2.38
2022-11-01T03:30:55.527Z,2.53
2022-11-01T03:40:45.575Z,2.30
2022-11-01T03:48:05.996Z,1.90
2022-11-01T03:50:33.363Z,1.98
2022-11-01T03:53:00.026Z,2.25
2022-11-01T03:55:26.688Z,2.65
2022-11-01T04:00:21.752Z,2.30
2022-11-01T04:02:49.015Z,2.22
2022-11-01T04:05:15.722Z,1.95
2022-11-01T04:07:43.429Z,2.80
2022-11-01T04:10:10.025Z,2.15
2022-11-01T04:12:36.612Z,2.20
2022-11-01T04:15:21.731Z,2.60
2022-11-01T04:18:07.142Z,2.65
2022-11-01T04:23:08.441Z,2.53
2022-11-01T04:25:35.173Z,2.33
2022-11-01T04:28:01.876Z,2.03
2022-11-01T04:30:29.730Z,3.22
2022-11-01T04:35:22.153Z,2.30
2022-11-01T04:37:48.869Z,2.13
2022-11-01T04:40:15.700Z,2.13
2022-11-01T04:42:42.312Z,2.13
2022-11-01T04:45:09.330Z,1.85
2022-11-01T04:47:35.886Z,2.45
2022-11-01T04:50:02.493Z,2.08
2022-11-01T04:52:29.043Z,2.10
2022-11-01T04:54:55.682Z,2.10
2022-11-01T04:57:25.084Z,2.60
2022-11-01T04:59:52.351Z,2.35
2022-11-01T05:04:44.988Z,2.38
2022-11-01T05:07:11.742Z,2.25
2022-11-01T05:09:38.360Z,1.98
2022-11-01T05:12:05.100Z,2.40
2022-11-01T05:14:31.704Z,2.45
2022-11-01T05:21:49.886Z,2.72
2022-11-01T05:24:16.961Z,1.90
2022-11-01T05:34:00.726Z,3.10
2022-11-01T05:36:27.408Z,2.38
2022-11-01T05:38:57.516Z,2.08
2022-11-01T05:41:24.225Z,2.28
2022-11-01T05:48:42.282Z,2.67
2022-11-01T05:51:09.478Z,2.28
2022-11-01T05:53:36.115Z,2.50
2022-11-01T05:56:02.787Z,3.55
2022-11-01T06:01:02.838Z,2.63
2022-11-01T06:03:29.966Z,2.22
2022-11-01T06:05:56.895Z,3.15
2022-11-01T06:08:23.539Z,2.30
2022-11-01T06:10:50.271Z,3.05
2022-11-01T06:13:17.043Z,3.00
2022-11-01T06:15:43.636Z,3.33
2022-11-01T06:23:07.878Z,2.60
2022-11-01T06:25:34.534Z,2.53
2022-11-01T06:28:01.378Z,2.38
2022-11-01T06:30:28.230Z,2.47
2022-11-01T06:33:01.798Z,2.60
2022-11-01T06:35:28.790Z,2.28
2022-11-01T06:37:55.390Z,2.78
2022-11-01T06:50:10.062Z,2.50
2022-11-01T06:52:36.648Z,2.10
2022-11-01T06:55:03.275Z,2.90
2022-11-01T06:59:55.324Z,2.10
2022-11-01T07:02:27.052Z,2.38
2022-11-01T07:07:21.685Z,2.47
2022-11-01T07:09:48.349Z,1.90
2022-11-01T07:14:40.579Z,2.10
2022-11-01T07:17:07.636Z,2.70
2022-11-01T07:19:37.864Z,2.30
2022-11-01T07:24:30.092Z,2.40
2022-11-01T07:26:56.830Z,2.53
2022-11-01T07:29:23.544Z,2.92
2022-11-01T07:34:15.689Z,2.47
2022-11-01T07:36:42.309Z,1.83
2022-11-01T07:41:34.357Z,2.28
2022-11-01T07:44:01.057Z,2.70
2022-11-01T07:46:29.097Z,2.90
2022-11-01T07:48:57.141Z,2.17
2022-11-01T07:51:25.007Z,2.90
2022-11-01T07:53:51.847Z,2.00
2022-11-01T07:56:19.112Z,2.05
2022-11-01T07:58:46.400Z,3.45
2022-11-01T08:03:39.069Z,2.35
2022-11-01T08:06:06.440Z,2.50
2022-11-01T08:08:33.563Z,2.22
2022-11-01T08:11:01.838Z,2.70
2022-11-01T08:13:29.672Z,1.88
2022-11-01T08:15:56.814Z,2.50
2022-11-01T08:18:24.636Z,3.28
2022-11-01T08:20:51.381Z,2.90
2022-11-01T08:23:18.218Z,2.13
2022-11-01T08:25:45.250Z,2.40
2022-11-01T08:28:16.237Z,2.47
2022-11-01T08:30:44.025Z,2.35
2022-11-01T08:33:10.805Z,2.42
2022-11-01T08:35:37.909Z,2.85
2022-11-01T08:38:04.901Z,2.83
2022-11-01T08:40:32.084Z,2.38
2022-11-01T08:42:59.241Z,2.05
2022-11-01T08:45:26.377Z,2.47
2022-11-01T08:57:45.462Z,1.95
2022-11-01T09:00:12.507Z,2.63
2022-11-01T09:02:39.163Z,2.63
2022-11-01T09:05:07.069Z,2.30
2022-11-01T09:07:34.912Z,2.05
2022-11-01T09:10:01.765Z,1.90
2022-11-01T09:17:20.116Z,2.35
2022-11-01T09:19:46.761Z,2.40
2022-11-01T09:22:13.412Z,2.08
2022-11-01T09:24:39.952Z,2.78
2022-11-01T09:27:10.155Z,2.53
2022-11-01T09:29:37.413Z,2.58
2022-11-01T09:32:04.013Z,1.83
2022-11-01T09:34:30.589Z,2.35
2022-11-01T09:36:58.008Z,2.17
2022-11-01T09:39:24.737Z,2.17
2022-11-01T09:47:08.098Z,3.10
2022-11-01T09:49:39.803Z,2.53
2022-11-01T09:52:06.794Z,2.05
2022-11-01T09:57:17.655Z,2.20
2022-11-01T09:59:50.884Z,2.17
2022-11-01T10:02:31.966Z,1.85
2022-11-01T10:07:36.007Z,2.20
2022-11-01T10:10:05.405Z,2.30
2022-11-01T10:12:32.178Z,2.08
2022-11-01T10:15:10.767Z,2.25
2022-11-01T10:17:40.089Z,2.35
2022-11-01T10:20:09.182Z,2.22
2022-11-01T10:22:37.221Z,2.28
2022-11-01T10:25:20.811Z,2.30
2022-11-01T10:27:59.965Z,2.30
2022-11-01T10:32:55.791Z,2.00
2022-11-01T10:35:24.814Z,2.90
2022-11-01T10:40:37.975Z,2.10
2022-11-01T10:45:37.088Z,2.28
2022-11-01T10:48:05.342Z,2.30
2022-11-01T10:50:33.060Z,2.58
2022-11-01T10:53:09.353Z,2.65
2022-11-01T10:55:45.687Z,2.67
2022-11-01T11:00:41.068Z,2.85
2022-11-01T11:05:49.078Z,1.63
2022-11-01T11:08:17.469Z,2.13
2022-11-01T11:10:45.656Z,2.47
2022-11-01T11:18:24.495Z,2.63
2022-11-01T11:20:52.588Z,2.28
2022-11-01T11:23:21.659Z,2.72
2022-11-01T11:25:50.509Z,2.60
2022-11-01T11:30:52.394Z,2.85
2022-11-01T11:33:19.997Z,2.58
2022-11-01T11:35:57.856Z,2.78
2022-11-01T11:38:41.266Z,2.53
2022-11-01T11:41:09.297Z,2.20
2022-11-01T11:43:37.975Z,2.10
2022-11-01T11:46:05.725Z,2.15
2022-11-01T11:48:32.817Z,2.70
2022-11-01T11:51:02.214Z,2.60
2022-11-01T11:53:29.483Z,2.58
2022-11-01T11:56:00.181Z,3.08
2022-11-01T11:58:28.728Z,2.80
2022-11-01T12:00:59.960Z,2.17
2022-11-01T12:03:26.805Z,2.50
2022-11-01T12:05:54.679Z,2.33
2022-11-01T12:11:16.587Z,2.80
2022-11-01T12:13:59.677Z,2.35
2022-11-01T12:18:52.925Z,2.58
2022-11-01T12:21:22.523Z,2.22
2022-11-01T12:23:51.423Z,2.00
2022-11-01T12:26:18.873Z,2.22
2022-11-01T12:28:52.024Z,2.63
2022-11-01T12:31:19.648Z,2.30
2022-11-01T12:34:06.527Z,2.30
2022-11-01T12:36:40.491Z,2.10
2022-11-01T12:39:10.454Z,2.55
2022-11-01T12:41:37.470Z,3.30
2022-11-01T12:44:16.134Z,2.17
2022-11-01T12:46:52.177Z,2.90
2022-11-01T12:49:18.929Z,2.35
2022-11-01T12:51:48.090Z,2.33
2022-11-01T12:54:16.892Z,2.72
2022-11-01T12:59:17.170Z,1.90
2022-11-01T13:01:43.903Z,1.95
2022-11-01T13:04:17.849Z,2.35
2022-11-01T13:06:55.695Z,2.03
2022-11-01T13:09:22.784Z,2.08
2022-11-01T13:11:49.339Z,2.08
2022-11-01T13:19:15.285Z,2.25
2022-11-01T13:24:30.856Z,2.22
2022-11-01T13:27:04.326Z,2.20
2022-11-01T13:29:51.913Z,2.10
2022-11-01T13:34:52.712Z,2.20
2022-11-01T13:37:25.492Z,2.63
2022-11-01T13:42:26.319Z,2.03
2022-11-01T13:45:01.489Z,2.20
2022-11-01T13:47:28.100Z,2.10
2022-11-01T13:57:45.402Z,1.73
2022-11-01T14:05:37.650Z,2.00
2022-11-01T14:08:04.833Z,2.10
2022-11-01T14:10:31.723Z,2.13
2022-11-01T14:12:58.948Z,2.83
2022-11-01T14:15:27.150Z,2.47
2022-11-01T14:17:56.474Z,3.13
2022-11-01T14:20:26.155Z,2.47
2022-11-01T14:22:53.530Z,2.60
2022-11-01T14:30:41.979Z,2.67
2022-11-01T14:33:12.504Z,2.30
2022-11-01T14:35:40.329Z,2.33
2022-11-01T14:38:08.771Z,2.97
2022-11-01T14:40:50.589Z,2.47
2022-11-01T14:43:24.448Z,2.70
2022-11-01T14:45:57.316Z,2.00
2022-11-01T14:48:28.267Z,2.55
2022-11-01T14:50:55.269Z,1.63
2022-11-01T14:53:23.903Z,2.38
2022-11-01T14:58:20.972Z,1.95
2022-11-01T15:00:49.566Z,2.58
2022-11-01T15:03:16.748Z,2.67
2022-11-01T15:10:59.462Z,2.08
2022-11-01T15:13:27.969Z,2.10
2022-11-01T15:16:03.683Z,2.00
2022-11-01T15:18:31.792Z,2.22
2022-11-01T15:20:59.485Z,2.25
2022-11-01T15:30:59.046Z,2.47
2022-11-01T15:33:28.446Z,2.53
2022-11-01T15:36:07.890Z,2.50
2022-11-01T15:38:55.084Z,2.33
2022-11-01T15:41:29.853Z,2.72
2022-11-01T15:43:58.029Z,2.20
2022-11-01T15:46:29.055Z,2.20
2022-11-01T15:51:25.794Z,2.28
2022-11-01T15:53:59.270Z,1.98
2022-11-01T15:59:01.012Z,2.55
2022-11-01T16:01:29.048Z,2.30
2022-11-01T16:03:57.891Z,2.28
2022-11-01T16:19:51.630Z,2.08
2022-11-01T16:27:26.638Z,2.67
2022-11-01T16:29:53.614Z,2.50
2022-11-01T16:32:24.627Z,2.25
2022-11-01T16:34:51.448Z,2.40
2022-11-01T16:37:28.486Z,2.42
2022-11-01T16:44:50.054Z,3.28
2022-11-01T16:47:18.445Z,4.00
2022-11-01T16:54:43.263Z,3.13
2022-11-01T16:57:26.439Z,3.88
2022-11-01T16:59:54.706Z,3.03
2022-11-01T17:02:23.778Z,2.80
2022-11-01T17:07:32.222Z,2.63
2022-11-01T17:09:59.131Z,2.58
2022-11-01T17:17:19.754Z,2.45
2022-11-01T17:19:47.682Z,2.47
2022-11-01T17:22:17.817Z,2.47
2022-11-01T17:24:44.743Z,2.95
2022-11-01T17:27:11.428Z,2.55
2022-11-01T17:29:38.140Z,2.42
2022-11-01T17:32:09.534Z,2.45
2022-11-01T17:34:36.733Z,2.80
2022-11-01T17:37:04.547Z,3.20
2022-11-01T17:39:31.312Z,3.00
2022-11-01T17:41:57.909Z,3.00
2022-11-01T17:44:24.607Z,2.60
2022-11-01T17:46:51.229Z,2.13
2022-11-01T17:49:21.613Z,3.80
2022-11-01T17:51:51.932Z,3.03
2022-11-01T18:01:38.796Z,3.80
2022-11-01T18:04:06.230Z,3.95
2022-11-01T18:06:33.065Z,5.35
2022-11-01T18:08:59.802Z,5.25
2022-11-01T18:11:36.283Z,4.35
2022-11-01T18:16:32.909Z,2.78
2022-11-01T18:19:12.882Z,3.33
2022-11-01T18:21:39.501Z,5.90
2022-11-01T18:24:15.041Z,7.63
2022-11-01T18:29:16.539Z,5.32
2022-11-01T18:31:45.869Z,4.75
2022-11-01T18:34:41.668Z,3.10
2022-11-01T18:37:24.621Z,3.47
2022-11-01T18:40:23.287Z,2.30
2022-11-01T18:42:51.302Z,2.05
2022-11-01T18:45:19.434Z,1.80
2022-11-01T18:55:36.755Z,1.20
2022-11-01T18:58:24.750Z,1.10
2022-11-01T19:00:57.355Z,1.05
2022-11-01T19:03:25.216Z,1.10
2022-11-01T19:05:52.095Z,1.40
2022-11-01T19:08:22.250Z,1.17
2022-11-01T19:10:49.241Z,1.35
2022-11-01T19:13:23.708Z,1.90
2022-11-01T19:18:19.993Z,1.88
2022-11-01T19:26:04.733Z,1.42
2022-11-01T19:28:33.460Z,1.40
2022-11-01T19:31:03.858Z,1.40
2022-11-01T19:33:33.022Z,1.30
2022-11-01T19:36:04.899Z,1.40
2022-11-01T19:38:31.866Z,1.30
2022-11-01T19:40:58.847Z,1.50
2022-11-01T19:43:26.815Z,1.90
2022-11-01T19:45:54.286Z,2.35
2022-11-01T19:48:22.489Z,1.83
2022-11-01T19:53:17.633Z,1.67
2022-11-01T19:55:47.476Z,2.50
2022-11-01T19:58:22.619Z,1.83
2022-11-01T20:00:49.749Z,2.15
2022-11-01T20:03:30.379Z,2.10
2022-11-01T20:05:57.070Z,2.00
2022-11-01T20:08:26.989Z,3.00
2022-11-01T20:13:19.013Z,3.25
2022-11-01T20:15:46.028Z,2.58
2022-11-01T20:23:25.695Z,2.33
2022-11-01T20:35:41.810Z,2.35
2022-11-01T20:38:09.028Z,2.20
2022-11-01T20:45:26.916Z,2.22
2022-11-01T20:47:53.612Z,2.50
2022-11-01T20:52:45.810Z,2.70
2022-11-01T20:55:12.810Z,2.30
2022-11-01T20:57:39.436Z,2.58
2022-11-01T21:05:02.964Z,1.98
2022-11-01T21:07:31.142Z,2.42
2022-11-01T21:09:57.737Z,2.72
2022-11-01T21:20:30.877Z,3.00
2022-11-01T21:23:04.210Z,2.80
2022-11-01T21:27:59.281Z,3.25
2022-11-01T21:37:45.054Z,3.17
2022-11-01T21:40:30.408Z,2.88
2022-11-01T21:42:57.584Z,2.45
2022-11-01T21:45:31.475Z,3.08
2022-11-01T21:48:01.236Z,2.70
2022-11-01T21:50:28.252Z,3.45
2022-11-01T21:52:54.900Z,2.85
2022-11-01T21:57:47.024Z,2.70
2022-11-01T22:00:15.477Z,3.08
2022-11-01T22:02:43.160Z,3.15
2022-11-01T22:05:10.560Z,3.45
2022-11-01T22:07:37.195Z,2.42
2022-11-01T22:12:29.434Z,2.95
2022-11-01T22:14:56.150Z,2.92
2022-11-01T22:19:48.908Z,2.45
2022-11-01T22:22:15.601Z,3.47
2022-11-01T22:27:07.624Z,2.90
2022-11-01T22:29:34.355Z,2.95
2022-11-01T22:35:04.239Z,3.22
2022-11-01T22:37:33.466Z,3.40
2022-11-01T22:40:00.054Z,2.90
2022-11-01T22:44:53.146Z,3.25
2022-11-01T22:49:57.069Z,2.83
2022-11-01T22:52:38.867Z,3.35
2022-11-01T22:55:17.797Z,3.67
2022-11-01T22:57:50.580Z,3.22
2022-11-01T23:00:27.240Z,3.20
2022-11-01T23:06:21.657Z,5.15
2022-11-01T23:08:48.356Z,2.70
2022-11-01T23:19:16.069Z,2.97
2022-11-01T23:21:42.691Z,2.83
2022-11-01T23:24:09.366Z,3.25
2022-11-01T23:26:36.064Z,3.67
2022-11-01T23:29:02.647Z,3.00
2022-11-01T23:38:51.346Z,3.65
2022-11-01T23:51:52.867Z,3.80
2022-11-01T23:56:48.208Z,3.78
2022-11-01T23:59:15.620Z,3.58
